createdAt,value
2022-10-05T00:01:17.836Z,1.40
2022-10-05T00:03:47.885Z,1.80
2022-10-05T00:06:15.860Z,1.58
2022-10-05T00:08:43.558Z,2.10
2022-10-05T00:11:14.903Z,2.08
2022-10-05T00:13:43.086Z,1.88
2022-10-05T00:16:10.822Z,1.80
2022-10-05T00:18:39.136Z,1.85
2022-10-05T00:21:27.285Z,2.17
2022-10-05T00:23:57.707Z,1.90
2022-10-05T00:26:27.846Z,1.40
2022-10-05T00:28:55.650Z,2.17
2022-10-05T00:31:31.018Z,1.48
2022-10-05T00:33:59.054Z,2.10
2022-10-05T00:36:26.677Z,2.13
2022-10-05T00:38:55.147Z,2.55
2022-10-05T00:41:47.138Z,2.10
2022-10-05T00:44:43.641Z,2.80
2022-10-05T00:47:50.102Z,2.58
2022-10-05T00:50:45.961Z,2.75
2022-10-05T00:53:32.161Z,1.52
2022-10-05T00:56:10.791Z,1.92
2022-10-05T00:58:52.278Z,1.77
2022-10-05T01:01:35.921Z,1.50
2022-10-05T01:04:25.108Z,1.45
2022-10-05T01:07:05.070Z,2.38
2022-10-05T01:09:35.683Z,1.70
2022-10-05T01:14:59.078Z,1.60
2022-10-05T01:17:51.476Z,1.75
2022-10-05T01:20:42.978Z,2.28
2022-10-05T01:23:33.365Z,1.60
2022-10-05T01:26:27.014Z,1.98
2022-10-05T01:29:12.786Z,1.75
2022-10-05T01:31:55.537Z,1.50
2022-10-05T01:34:38.187Z,1.60
2022-10-05T01:37:42.037Z,1.48
2022-10-05T01:40:31.428Z,1.55
2022-10-05T01:43:25.191Z,1.67
2022-10-05T01:46:30.875Z,2.08
2022-10-05T01:49:33.260Z,1.70
2022-10-05T01:52:19.504Z,2.13
2022-10-05T01:55:21.129Z,1.85
2022-10-05T01:58:09.624Z,1.85
2022-10-05T02:01:04.432Z,1.70
2022-10-05T02:03:43.477Z,3.55
2022-10-05T02:06:20.712Z,1.85
2022-10-05T02:09:01.421Z,1.70
2022-10-05T02:11:30.415Z,1.73
2022-10-05T02:14:09.752Z,1.83
2022-10-05T02:16:46.436Z,2.50
2022-10-05T02:19:27.605Z,1.92
2022-10-05T02:22:03.291Z,2.17
2022-10-05T02:24:39.636Z,2.05
2022-10-05T02:27:10.952Z,2.88
2022-10-05T02:29:45.296Z,1.80
2022-10-05T02:32:21.813Z,1.83
2022-10-05T02:34:49.980Z,2.03
2022-10-05T02:37:29.866Z,2.03
2022-10-05T02:40:09.895Z,2.33
2022-10-05T02:43:04.611Z,2.13
2022-10-05T02:45:39.088Z,1.85
2022-10-05T02:48:19.052Z,2.10
2022-10-05T02:51:11.292Z,1.88
2022-10-05T02:53:45.272Z,1.85
2022-10-05T02:56:39.119Z,1.98
2022-10-05T02:59:15.872Z,2.10
2022-10-05T03:01:52.727Z,3.15
2022-10-05T03:04:38.897Z,2.55
2022-10-05T03:07:27.345Z,2.05
2022-10-05T03:10:15.577Z,2.35
2022-10-05T03:13:06.884Z,2.08
2022-10-05T03:15:48.176Z,2.03
2022-10-05T03:18:31.865Z,2.33
2022-10-05T03:21:13.555Z,2.20
2022-10-05T03:23:47.818Z,2.50
2022-10-05T03:26:21.688Z,2.10
2022-10-05T03:29:15.550Z,1.80
2022-10-05T03:31:59.343Z,1.73
2022-10-05T03:35:01.976Z,2.38
2022-10-05T03:37:45.182Z,1.73
2022-10-05T03:40:22.949Z,2.00
2022-10-05T03:42:50.646Z,1.65
2022-10-05T03:45:40.849Z,2.40
2022-10-05T03:48:14.029Z,2.15
2022-10-05T03:51:00.911Z,2.28
2022-10-05T03:53:40.699Z,2.90
2022-10-05T03:56:30.232Z,2.17
2022-10-05T03:59:02.247Z,1.90
2022-10-05T04:01:51.976Z,2.05
2022-10-05T04:04:47.377Z,2.30
2022-10-05T04:07:30.018Z,2.47
2022-10-05T04:10:25.662Z,2.17
2022-10-05T04:13:17.994Z,2.70
2022-10-05T04:16:11.249Z,2.50
2022-10-05T04:19:02.864Z,2.22
2022-10-05T04:21:38.535Z,1.92
2022-10-05T04:24:20.545Z,2.33
2022-10-05T04:26:58.136Z,2.47
2022-10-05T04:29:40.048Z,2.70
2022-10-05T04:32:43.628Z,2.70
2022-10-05T04:35:26.403Z,4.57
2022-10-05T04:38:05.982Z,2.15
2022-10-05T04:41:01.430Z,2.40
2022-10-05T04:44:35.766Z,2.58
2022-10-05T04:47:36.428Z,2.20
2022-10-05T04:50:29.804Z,2.65
2022-10-05T04:53:03.959Z,1.88
2022-10-05T04:55:56.040Z,2.38
2022-10-05T04:58:30.257Z,2.30
2022-10-05T05:01:36.445Z,2.03
2022-10-05T05:04:13.530Z,2.67
2022-10-05T05:07:12.952Z,2.20
2022-10-05T05:10:08.320Z,2.03
2022-10-05T05:12:48.195Z,1.50
2022-10-05T05:15:38.760Z,2.78
2022-10-05T05:18:20.697Z,2.20
2022-10-05T05:21:01.939Z,1.80
2022-10-05T05:23:37.728Z,2.03
2022-10-05T05:26:17.596Z,1.58
2022-10-05T05:29:02.639Z,2.10
2022-10-05T05:31:48.625Z,2.00
2022-10-05T05:35:14.518Z,2.63
2022-10-05T05:38:00.089Z,1.83
2022-10-05T05:40:33.811Z,4.55
2022-10-05T05:43:26.777Z,5.22
2022-10-05T05:45:56.367Z,2.00
2022-10-05T05:48:26.973Z,2.15
2022-10-05T05:51:21.063Z,1.88
2022-10-05T05:53:53.985Z,2.20
2022-10-05T05:56:34.496Z,2.25
2022-10-05T05:59:24.567Z,1.48
2022-10-05T06:02:01.141Z,2.03
2022-10-05T06:04:34.484Z,2.33
2022-10-05T06:07:06.031Z,2.05
2022-10-05T06:09:46.201Z,2.25
2022-10-05T06:12:59.645Z,2.50
2022-10-05T06:15:52.613Z,2.20
2022-10-05T06:18:22.721Z,1.88
2022-10-05T06:21:01.441Z,2.40
2022-10-05T06:23:55.086Z,2.80
2022-10-05T06:27:20.089Z,2.10
2022-10-05T06:30:16.304Z,2.40
2022-10-05T06:33:06.558Z,2.78
2022-10-05T06:35:55.504Z,2.05
2022-10-05T06:38:52.995Z,2.83
2022-10-05T06:41:50.452Z,1.95
2022-10-05T06:44:22.985Z,2.17
2022-10-05T06:48:02.836Z,1.80
2022-10-05T06:51:36.486Z,1.80
2022-10-05T06:54:25.930Z,1.98
2022-10-05T06:57:18.053Z,1.83
2022-10-05T07:00:27.973Z,2.00
2022-10-05T07:04:01.706Z,1.73
2022-10-05T07:06:38.419Z,4.90
2022-10-05T07:09:30.288Z,2.03
2022-10-05T07:12:05.473Z,1.02
2022-10-05T07:15:21.385Z,1.42
2022-10-05T07:18:19.252Z,1.70
2022-10-05T07:20:59.077Z,2.50
2022-10-05T07:23:33.306Z,2.35
2022-10-05T07:26:31.991Z,2.08
2022-10-05T07:29:18.419Z,3.00
2022-10-05T07:32:03.010Z,1.80
2022-10-05T07:34:50.401Z,1.77
2022-10-05T07:37:45.664Z,2.53
2022-10-05T07:40:37.861Z,1.92
2022-10-05T07:44:02.856Z,2.05
2022-10-05T07:46:55.521Z,1.87
2022-10-05T07:49:43.461Z,1.75
2022-10-05T07:52:20.129Z,1.70
2022-10-05T07:55:20.857Z,1.65
2022-10-05T07:58:13.119Z,1.60
2022-10-05T08:01:09.983Z,1.80
2022-10-05T08:04:22.649Z,1.70
2022-10-05T08:06:58.101Z,2.30
2022-10-05T08:09:52.069Z,3.25
2022-10-05T08:12:42.211Z,1.40
2022-10-05T08:15:23.349Z,1.88
2022-10-05T08:17:57.583Z,1.92
2022-10-05T08:20:40.136Z,2.20
2022-10-05T08:23:13.876Z,1.80
2022-10-05T08:25:55.077Z,1.35
2022-10-05T08:28:35.486Z,2.42
2022-10-05T08:33:50.402Z,2.38
2022-10-05T08:36:26.682Z,3.65
2022-10-05T08:38:57.382Z,1.65
2022-10-05T08:41:56.409Z,1.75
2022-10-05T08:44:30.237Z,2.70
2022-10-05T08:47:14.794Z,2.22
2022-10-05T08:49:51.182Z,3.30
2022-10-05T08:52:30.786Z,1.92
2022-10-05T08:55:10.580Z,2.28
2022-10-05T08:58:22.804Z,2.05
2022-10-05T09:01:40.574Z,1.92
2022-10-05T09:04:22.278Z,1.88
2022-10-05T09:07:14.349Z,3.47
2022-10-05T09:10:01.401Z,3.05
2022-10-05T09:12:48.181Z,2.53
2022-10-05T09:15:26.482Z,1.70
2022-10-05T09:18:23.033Z,2.13
2022-10-05T09:20:57.642Z,1.85
2022-10-05T09:23:46.530Z,2.20
2022-10-05T09:26:41.780Z,1.77
2022-10-05T09:29:33.560Z,2.08
2022-10-05T09:32:36.481Z,1.60
2022-10-05T09:35:04.256Z,1.90
2022-10-05T09:37:54.852Z,1.77
2022-10-05T09:41:07.443Z,1.30
2022-10-05T09:44:15.084Z,1.63
2022-10-05T09:47:18.184Z,3.00
2022-10-05T09:49:57.783Z,1.70
2022-10-05T09:52:51.470Z,1.52
2022-10-05T09:55:39.337Z,1.80
2022-10-05T09:58:40.854Z,1.65
2022-10-05T10:01:36.363Z,2.35
2022-10-05T10:04:37.719Z,1.75
2022-10-05T10:07:33.142Z,2.05
2022-10-05T10:10:21.151Z,1.80
2022-10-05T10:13:22.543Z,1.70
2022-10-05T10:16:23.595Z,1.80
2022-10-05T10:19:21.990Z,2.30
2022-10-05T10:22:17.503Z,1.80
2022-10-05T10:25:19.266Z,2.20
2022-10-05T10:28:24.356Z,2.03
2022-10-05T10:31:01.739Z,2.55
2022-10-05T10:34:07.809Z,2.28
2022-10-05T10:37:02.625Z,2.13
2022-10-05T10:39:48.615Z,2.70
2022-10-05T10:42:36.171Z,2.10
2022-10-05T10:45:40.740Z,2.20
2022-10-05T10:48:30.391Z,2.28
2022-10-05T10:51:35.816Z,2.47
2022-10-05T10:54:28.833Z,2.22
2022-10-05T10:57:08.768Z,2.30
2022-10-05T10:59:53.369Z,2.00
2022-10-05T11:02:29.618Z,2.03
2022-10-05T11:05:15.895Z,2.33
2022-10-05T11:07:43.548Z,2.13
2022-10-05T11:10:38.337Z,2.92
2022-10-05T11:13:40.802Z,2.80
2022-10-05T11:16:26.529Z,2.03
2022-10-05T11:19:17.576Z,2.63
2022-10-05T11:22:05.917Z,2.38
2022-10-05T11:24:57.964Z,3.10
2022-10-05T11:27:56.430Z,2.45
2022-10-05T11:30:56.366Z,2.15
2022-10-05T11:34:01.565Z,3.22
2022-10-05T11:37:04.664Z,2.67
2022-10-05T11:39:52.447Z,1.85
2022-10-05T11:42:52.261Z,2.70
2022-10-05T11:45:43.045Z,1.92
2022-10-05T11:48:22.746Z,2.70
2022-10-05T11:50:58.375Z,2.28
2022-10-05T11:53:49.938Z,2.35
2022-10-05T11:59:15.954Z,2.63
2022-10-05T12:04:40.593Z,2.90
2022-10-05T12:07:11.190Z,2.05
2022-10-05T12:10:09.896Z,1.80
2022-10-05T12:12:46.167Z,2.15
2022-10-05T12:15:32.004Z,2.28
2022-10-05T12:18:13.300Z,2.17
2022-10-05T12:20:56.608Z,2.08
2022-10-05T12:23:57.498Z,1.80
2022-10-05T12:26:31.734Z,1.65
2022-10-05T12:29:17.150Z,2.22
2022-10-05T12:32:03.320Z,2.30
2022-10-05T12:34:48.871Z,2.13
2022-10-05T12:37:58.271Z,2.38
2022-10-05T12:40:48.713Z,1.98
2022-10-05T12:43:40.847Z,1.98
2022-10-05T12:46:17.868Z,1.80
2022-10-05T12:49:08.011Z,1.88
2022-10-05T12:51:52.799Z,1.70
2022-10-05T12:54:38.808Z,1.67
2022-10-05T12:57:28.946Z,2.10
2022-10-05T13:00:13.238Z,2.05
2022-10-05T13:02:50.913Z,2.55
2022-10-05T13:05:31.869Z,2.83
2022-10-05T13:08:26.050Z,2.60
2022-10-05T13:11:15.257Z,3.75
2022-10-05T13:14:02.662Z,2.83
2022-10-05T13:16:54.750Z,2.53
2022-10-05T13:19:28.881Z,2.40
2022-10-05T13:22:14.947Z,3.20
2022-10-05T13:24:52.861Z,4.45
2022-10-05T13:27:30.508Z,3.55
2022-10-05T13:30:19.478Z,3.72
2022-10-05T13:32:50.270Z,3.28
2022-10-05T13:35:42.443Z,3.20
2022-10-05T13:38:22.213Z,3.67
2022-10-05T13:40:53.832Z,3.27
2022-10-05T13:43:44.526Z,3.17
2022-10-05T13:49:00.609Z,4.60
2022-10-05T13:51:51.252Z,2.80
2022-10-05T13:57:45.357Z,3.45
2022-10-05T14:00:26.974Z,4.43
2022-10-05T14:04:04.017Z,2.10
2022-10-05T14:06:34.275Z,2.17
2022-10-05T14:09:02.294Z,1.98
2022-10-05T14:11:36.932Z,1.35
2022-10-05T14:14:10.848Z,3.05
2022-10-05T14:16:57.113Z,1.40
2022-10-05T14:19:35.493Z,1.52
2022-10-05T14:22:16.008Z,1.42
2022-10-05T14:27:34.741Z,0.82
2022-10-05T14:30:11.823Z,1.42
2022-10-05T14:33:05.522Z,1.00
2022-10-05T14:35:52.636Z,2.25
2022-10-05T14:38:46.352Z,0.80
2022-10-05T14:41:27.679Z,0.93
2022-10-05T14:44:24.764Z,1.10
2022-10-05T14:46:55.028Z,0.90
2022-10-05T14:49:31.718Z,1.20
2022-10-05T14:52:21.855Z,1.17
2022-10-05T14:54:57.208Z,1.33
2022-10-05T14:57:35.283Z,3.08
2022-10-05T15:00:13.540Z,0.85
2022-10-05T15:03:08.647Z,1.10
2022-10-05T15:05:50.450Z,1.10
2022-10-05T15:09:02.761Z,1.23
2022-10-05T15:11:35.173Z,0.70
2022-10-05T15:14:14.764Z,0.98
2022-10-05T15:16:42.704Z,0.98
2022-10-05T15:19:42.422Z,1.02
2022-10-05T15:22:35.698Z,1.15
2022-10-05T15:25:23.321Z,1.10
2022-10-05T15:28:23.631Z,1.10
2022-10-05T15:31:06.961Z,1.23
2022-10-05T15:33:43.234Z,1.92
2022-10-05T15:36:35.592Z,0.90
2022-10-05T15:39:27.031Z,1.10
2022-10-05T15:42:11.247Z,1.10
2022-10-05T15:44:57.684Z,0.77
2022-10-05T15:47:51.125Z,1.05
2022-10-05T15:50:26.706Z,0.70
2022-10-05T15:53:02.728Z,0.93
2022-10-05T15:55:43.650Z,1.02
2022-10-05T15:58:35.688Z,0.60
2022-10-05T16:01:33.633Z,0.90
2022-10-05T16:04:10.678Z,1.10
2022-10-05T16:06:59.920Z,1.08
2022-10-05T16:10:13.800Z,1.60
2022-10-05T16:13:04.497Z,1.20
2022-10-05T16:15:44.425Z,0.73
2022-10-05T16:18:40.050Z,2.03
2022-10-05T16:21:19.435Z,1.30
2022-10-05T16:24:07.219Z,0.95
2022-10-05T16:27:12.557Z,0.82
2022-10-05T16:30:02.161Z,0.98
2022-10-05T16:32:37.430Z,1.10
2022-10-05T16:35:21.268Z,1.10
2022-10-05T16:38:08.174Z,1.02
2022-10-05T16:41:01.959Z,1.77
2022-10-05T16:43:30.435Z,1.30
2022-10-05T16:46:03.437Z,1.05
2022-10-05T16:48:52.697Z,1.15
2022-10-05T16:51:44.318Z,1.40
2022-10-05T16:54:20.729Z,1.00
2022-10-05T16:56:51.261Z,1.45
2022-10-05T17:02:37.949Z,1.30
2022-10-05T17:05:38.625Z,1.25
2022-10-05T17:08:31.762Z,1.10
2022-10-05T17:11:17.845Z,1.20
2022-10-05T17:13:45.508Z,1.38
2022-10-05T17:16:21.941Z,1.40
2022-10-05T17:19:23.673Z,1.50
2022-10-05T17:22:13.252Z,1.30
2022-10-05T17:24:47.091Z,0.82
2022-10-05T17:27:33.163Z,1.42
2022-10-05T17:30:53.861Z,1.05
2022-10-05T17:33:32.396Z,1.42
2022-10-05T17:36:03.238Z,1.45
2022-10-05T17:38:30.912Z,0.95
2022-10-05T17:41:06.244Z,1.40
2022-10-05T17:43:34.369Z,1.25
2022-10-05T17:46:04.245Z,1.45
2022-10-05T17:48:50.216Z,1.10
2022-10-05T17:51:48.337Z,1.70
2022-10-05T17:54:59.126Z,1.50
2022-10-05T17:59:58.391Z,1.50
2022-10-05T18:02:36.356Z,1.83
2022-10-05T18:05:04.713Z,1.58
2022-10-05T18:07:37.225Z,1.92
2022-10-05T18:10:13.452Z,1.40
2022-10-05T18:12:46.331Z,3.88
2022-10-05T18:15:23.272Z,1.85
2022-10-05T18:17:54.908Z,1.52
2022-10-05T18:20:28.558Z,2.15
2022-10-05T18:23:09.705Z,1.65
2022-10-05T18:25:45.446Z,1.58
2022-10-05T18:28:30.815Z,2.17
2022-10-05T18:31:35.212Z,1.73
2022-10-05T18:34:06.600Z,3.03
2022-10-05T18:36:47.263Z,2.22
2022-10-05T18:42:08.854Z,1.58
2022-10-05T18:45:30.182Z,1.60
2022-10-05T18:48:36.551Z,1.63
2022-10-05T18:51:33.675Z,3.97
2022-10-05T18:54:34.272Z,1.88
2022-10-05T18:57:27.733Z,2.25
2022-10-05T19:00:13.489Z,1.73
2022-10-05T19:02:46.473Z,1.83
2022-10-05T19:05:46.451Z,1.75
2022-10-05T19:08:28.796Z,2.35
2022-10-05T19:11:12.388Z,1.70
2022-10-05T19:14:20.507Z,2.65
2022-10-05T19:17:02.754Z,4.70
2022-10-05T19:19:48.794Z,2.53
2022-10-05T19:23:05.350Z,2.47
2022-10-05T19:25:48.361Z,2.60
2022-10-05T19:28:34.369Z,3.90
2022-10-05T19:31:17.531Z,5.38
2022-10-05T19:34:22.277Z,2.97
2022-10-05T19:37:00.696Z,2.85
2022-10-05T19:39:39.417Z,2.75
2022-10-05T19:42:22.790Z,3.33
2022-10-05T19:44:58.439Z,2.70
2022-10-05T19:47:49.388Z,2.88
2022-10-05T19:50:32.791Z,2.53
2022-10-05T19:53:08.255Z,2.75
2022-10-05T19:55:39.715Z,2.92
2022-10-05T19:58:29.058Z,2.58
2022-10-05T20:01:02.140Z,2.95
2022-10-05T20:03:32.827Z,3.75
2022-10-05T20:06:03.463Z,3.78
2022-10-05T20:08:48.874Z,2.17
2022-10-05T20:11:22.189Z,4.07
2022-10-05T20:13:53.325Z,2.72
2022-10-05T20:16:52.523Z,3.53
2022-10-05T20:19:50.916Z,3.80
2022-10-05T20:22:35.029Z,4.90
2022-10-05T20:25:22.860Z,2.75
2022-10-05T20:27:51.622Z,2.72
2022-10-05T20:30:27.656Z,3.53
2022-10-05T20:33:01.661Z,4.43
2022-10-05T20:35:30.908Z,2.90
2022-10-05T20:38:01.841Z,2.95
2022-10-05T20:40:30.356Z,2.95
2022-10-05T20:42:58.902Z,3.00
2022-10-05T20:45:27.711Z,4.03
2022-10-05T20:47:55.792Z,4.70
2022-10-05T20:50:23.455Z,3.33
2022-10-05T20:52:53.159Z,4.57
2022-10-05T20:55:21.083Z,3.97
2022-10-05T20:57:48.734Z,3.22
2022-10-05T21:00:16.425Z,3.78
2022-10-05T21:02:43.995Z,3.47
2022-10-05T21:05:11.751Z,2.97
2022-10-05T21:07:40.961Z,2.95
2022-10-05T21:10:08.896Z,4.45
2022-10-05T21:12:36.587Z,4.07
2022-10-05T21:15:04.978Z,5.43
2022-10-05T21:17:34.728Z,3.70
2022-10-05T21:20:02.416Z,2.73
2022-10-05T21:22:30.188Z,6.25
2022-10-05T21:24:58.511Z,3.85
2022-10-05T21:27:26.132Z,3.13
2022-10-05T21:29:53.744Z,3.75
2022-10-05T21:32:21.289Z,3.63
2022-10-05T21:34:49.236Z,3.65
2022-10-05T21:37:16.935Z,4.00
2022-10-05T21:39:45.843Z,5.82
2022-10-05T21:42:13.454Z,3.08
2022-10-05T21:44:41.017Z,3.85
2022-10-05T21:47:08.661Z,3.33
2022-10-05T21:49:36.642Z,3.13
2022-10-05T21:52:05.388Z,3.25
2022-10-05T21:54:33.845Z,3.42
2022-10-05T21:57:01.795Z,4.00
2022-10-05T21:59:33.737Z,3.95
2022-10-05T22:02:02.447Z,3.53
2022-10-05T22:04:30.315Z,5.30
2022-10-05T22:06:57.987Z,3.03
2022-10-05T22:09:25.769Z,3.50
2022-10-05T22:11:53.627Z,3.15
2022-10-05T22:14:21.539Z,2.80
2022-10-05T22:16:49.709Z,2.72
2022-10-05T22:19:19.944Z,4.00
2022-10-05T22:21:47.820Z,3.50
2022-10-05T22:24:15.604Z,3.25
2022-10-05T22:26:46.958Z,3.83
2022-10-05T22:29:16.274Z,2.67
2022-10-05T22:31:49.068Z,5.13
2022-10-05T22:34:18.251Z,3.03
2022-10-05T22:36:47.482Z,3.08
2022-10-05T22:39:16.711Z,3.55
2022-10-05T22:41:44.675Z,3.83
2022-10-05T22:44:12.461Z,3.55
2022-10-05T22:46:40.114Z,3.60
2022-10-05T22:49:07.943Z,3.00
2022-10-05T22:51:35.688Z,2.95
2022-10-05T22:54:03.633Z,3.67
2022-10-05T22:56:31.231Z,3.10
2022-10-05T22:58:59.006Z,2.97
2022-10-05T23:01:27.289Z,2.42
2022-10-05T23:03:57.352Z,3.83
2022-10-05T23:06:26.651Z,3.42
2022-10-05T23:08:54.773Z,3.15
2022-10-05T23:11:27.732Z,4.03
2022-10-05T23:14:03.823Z,3.17
2022-10-05T23:16:31.938Z,4.03
2022-10-05T23:19:00.348Z,3.75
2022-10-05T23:21:30.106Z,5.07
2022-10-05T23:23:57.705Z,4.27
2022-10-05T23:26:26.376Z,2.85
2022-10-05T23:28:54.012Z,3.00
2022-10-05T23:31:24.579Z,4.10
2022-10-05T23:33:53.317Z,5.90
2022-10-05T23:36:26.918Z,3.17
2022-10-05T23:38:54.941Z,3.20
2022-10-05T23:41:29.252Z,3.83
2022-10-05T23:43:59.546Z,3.15
2022-10-05T23:46:27.243Z,3.13
2022-10-05T23:48:54.961Z,3.75
2022-10-05T23:51:22.600Z,2.65
2022-10-05T23:53:50.179Z,4.55
2022-10-05T23:56:17.949Z,4.40
2022-10-05T23:58:45.580Z,3.08
